createdAt,value
2023-03-10T00:01:19.874Z,11.23
2023-03-10T00:03:47.598Z,11.22
2023-03-10T00:06:17.858Z,11.11
2023-03-10T00:08:45.918Z,10.93
2023-03-10T00:11:13.869Z,10.91
2023-03-10T00:13:41.983Z,10.89
2023-03-10T00:16:16.532Z,10.89
2023-03-10T00:18:43.834Z,10.84
2023-03-10T00:21:18.655Z,10.82
2023-03-10T00:23:45.803Z,10.78
2023-03-10T00:26:15.343Z,10.79
2023-03-10T00:28:42.503Z,10.82
2023-03-10T00:31:13.325Z,10.84
2023-03-10T00:33:40.571Z,10.83
2023-03-10T00:36:14.566Z,10.85
2023-03-10T00:38:42.909Z,10.87
2023-03-10T00:41:15.487Z,10.83
2023-03-10T00:43:42.860Z,10.83
2023-03-10T00:46:10.252Z,10.73
2023-03-10T00:48:37.797Z,10.65
2023-03-10T00:51:05.660Z,10.56
2023-03-10T00:53:34.748Z,10.33
2023-03-10T00:56:03.027Z,10.26
2023-03-10T00:58:31.120Z,10.15
2023-03-10T01:00:58.917Z,10.08
2023-03-10T01:03:27.302Z,10.04
2023-03-10T01:05:55.488Z,10.13
2023-03-10T01:08:23.068Z,10.10
2023-03-10T01:10:51.013Z,10.04
2023-03-10T01:13:19.325Z,10.14
2023-03-10T01:15:51.216Z,10.16
2023-03-10T01:18:20.023Z,10.08
2023-03-10T01:20:47.993Z,10.12
2023-03-10T01:23:21.193Z,10.19
2023-03-10T01:25:50.551Z,10.14
2023-03-10T01:28:19.727Z,9.99
2023-03-10T01:30:47.417Z,10.08
2023-03-10T01:33:15.668Z,10.16
2023-03-10T01:35:43.659Z,10.19
2023-03-10T01:38:11.671Z,10.22
2023-03-10T01:40:39.821Z,10.18
2023-03-10T01:43:19.836Z,10.24
2023-03-10T01:45:47.747Z,10.29
2023-03-10T01:48:17.746Z,10.28
2023-03-10T01:50:47.095Z,10.21
2023-03-10T01:53:19.571Z,10.28
2023-03-10T01:55:50.225Z,10.36
2023-03-10T01:58:21.032Z,10.41
2023-03-10T02:00:50.116Z,10.41
2023-03-10T02:03:41.046Z,10.45
2023-03-10T02:06:14.535Z,10.32
2023-03-10T02:08:46.091Z,10.16
2023-03-10T02:11:15.154Z,9.94
2023-03-10T02:13:43.373Z,9.88
2023-03-10T02:16:10.849Z,9.84
2023-03-10T02:18:37.961Z,9.84
2023-03-10T02:21:05.184Z,9.72
2023-03-10T02:24:01.517Z,9.55
2023-03-10T02:27:10.514Z,9.74
2023-03-10T02:30:06.146Z,9.72
2023-03-10T02:32:39.744Z,9.70
2023-03-10T02:35:07.474Z,9.78
2023-03-10T02:37:40.786Z,9.79
2023-03-10T02:40:32.472Z,9.97
2023-03-10T02:43:03.662Z,9.90
2023-03-10T02:45:34.652Z,9.70
2023-03-10T02:48:01.971Z,9.58
2023-03-10T02:50:34.336Z,9.61
2023-03-10T02:53:23.159Z,9.66
2023-03-10T02:55:50.824Z,9.58
2023-03-10T02:58:18.675Z,9.57
2023-03-10T03:00:48.284Z,9.67
2023-03-10T03:03:16.890Z,9.80
2023-03-10T03:05:45.366Z,9.88
2023-03-10T03:08:13.387Z,9.90
2023-03-10T03:10:42.022Z,9.93
2023-03-10T03:13:10.234Z,9.98
2023-03-10T03:15:37.798Z,9.95
2023-03-10T03:18:04.915Z,9.90
2023-03-10T03:20:34.534Z,9.97
2023-03-10T03:23:01.805Z,9.93
2023-03-10T03:25:30.581Z,9.80
2023-03-10T03:27:58.632Z,9.66
2023-03-10T03:30:27.811Z,9.62
2023-03-10T03:32:58.158Z,9.46
2023-03-10T03:35:30.012Z,9.60
2023-03-10T03:37:57.728Z,9.55
2023-03-10T03:40:27.922Z,9.55
2023-03-10T03:42:56.153Z,9.65
2023-03-10T03:45:26.813Z,9.55
2023-03-10T03:47:55.867Z,9.50
2023-03-10T03:50:24.396Z,9.39
2023-03-10T03:52:53.337Z,9.29
2023-03-10T03:55:22.904Z,9.17
2023-03-10T03:57:51.894Z,9.13
2023-03-10T04:00:24.488Z,9.23
2023-03-10T04:02:59.250Z,9.23
2023-03-10T04:05:27.027Z,8.99
2023-03-10T04:07:54.237Z,9.06
2023-03-10T04:10:28.573Z,9.11
2023-03-10T04:12:56.286Z,9.03
2023-03-10T04:15:24.772Z,9.03
2023-03-10T04:17:51.825Z,9.08
2023-03-10T04:20:19.124Z,9.00
2023-03-10T04:22:49.430Z,9.13
2023-03-10T04:25:17.551Z,9.12
2023-03-10T04:27:45.226Z,9.20
2023-03-10T04:30:14.706Z,9.17
2023-03-10T04:32:47.869Z,9.10
2023-03-10T04:35:16.257Z,9.07
2023-03-10T04:37:45.042Z,9.01
2023-03-10T04:40:14.091Z,9.04
2023-03-10T04:42:42.392Z,9.07
2023-03-10T04:45:10.091Z,9.15
2023-03-10T04:47:38.084Z,8.95
2023-03-10T04:50:07.159Z,9.05
2023-03-10T04:52:34.540Z,8.95
2023-03-10T04:55:01.573Z,9.02
2023-03-10T04:57:28.951Z,9.00
2023-03-10T04:59:56.068Z,8.88
2023-03-10T05:02:23.625Z,8.95
2023-03-10T05:04:51.212Z,8.88
2023-03-10T05:07:18.472Z,8.88
2023-03-10T05:09:48.554Z,8.89
2023-03-10T05:12:15.759Z,8.75
2023-03-10T05:14:42.834Z,8.75
2023-03-10T05:17:11.160Z,8.90
2023-03-10T05:19:38.875Z,8.85
2023-03-10T05:22:07.834Z,9.03
2023-03-10T05:24:37.153Z,8.90
2023-03-10T05:27:04.834Z,9.06
2023-03-10T05:29:32.544Z,9.11
2023-03-10T05:32:11.310Z,9.10
2023-03-10T05:34:40.580Z,8.90
2023-03-10T05:37:08.144Z,9.02
2023-03-10T05:39:35.285Z,9.15
2023-03-10T05:42:08.414Z,9.19
2023-03-10T05:44:37.125Z,9.23
2023-03-10T05:47:06.454Z,9.29
2023-03-10T05:49:36.149Z,9.38
2023-03-10T05:52:04.657Z,9.41
2023-03-10T05:54:31.692Z,9.31
2023-03-10T05:56:58.807Z,9.32
2023-03-10T05:59:28.098Z,9.48
2023-03-10T06:01:55.573Z,9.70
2023-03-10T06:04:22.701Z,9.90
2023-03-10T06:06:50.062Z,10.03
2023-03-10T06:09:17.154Z,10.05
2023-03-10T06:11:44.222Z,10.20
2023-03-10T06:14:11.284Z,10.04
2023-03-10T06:16:38.433Z,9.89
2023-03-10T06:19:05.477Z,9.77
2023-03-10T06:21:32.513Z,9.89
2023-03-10T06:24:00.664Z,9.93
2023-03-10T06:26:27.759Z,9.86
2023-03-10T06:28:54.720Z,9.69
2023-03-10T06:31:24.784Z,9.79
2023-03-10T06:33:52.566Z,9.76
2023-03-10T06:36:21.356Z,9.79
2023-03-10T06:38:48.594Z,9.77
2023-03-10T06:41:16.860Z,9.71
2023-03-10T06:43:44.276Z,9.88
2023-03-10T06:46:22.971Z,9.98
2023-03-10T06:48:50.339Z,10.18
2023-03-10T06:51:20.101Z,10.27
2023-03-10T06:53:48.055Z,10.32
2023-03-10T06:56:20.070Z,10.39
2023-03-10T06:58:47.688Z,10.53
2023-03-10T07:01:25.204Z,10.70
2023-03-10T07:03:53.240Z,10.64
2023-03-10T07:06:21.114Z,10.62
2023-03-10T07:08:48.250Z,10.75
2023-03-10T07:11:15.544Z,10.82
2023-03-10T07:13:42.666Z,10.89
2023-03-10T07:16:09.815Z,10.91
2023-03-10T07:18:36.894Z,10.91
2023-03-10T07:21:08.845Z,11.02
2023-03-10T07:23:36.031Z,10.95
2023-03-10T07:26:03.961Z,10.95
2023-03-10T07:28:31.085Z,11.00
2023-03-10T07:30:58.154Z,11.04
2023-03-10T07:33:25.256Z,11.03
2023-03-10T07:35:52.411Z,11.10
2023-03-10T07:38:19.422Z,11.23
2023-03-10T07:40:46.449Z,11.21
2023-03-10T07:43:13.437Z,11.24
2023-03-10T07:45:40.672Z,11.33
2023-03-10T07:48:07.707Z,11.44
2023-03-10T07:50:34.693Z,11.66
2023-03-10T07:53:01.678Z,11.88
2023-03-10T07:55:28.768Z,12.16
2023-03-10T07:57:57.728Z,12.29
2023-03-10T08:00:24.755Z,12.40
2023-03-10T08:02:51.708Z,12.64
2023-03-10T08:05:18.850Z,12.74
2023-03-10T08:07:45.942Z,12.76
2023-03-10T08:10:13.314Z,13.00
2023-03-10T08:12:40.322Z,13.16
2023-03-10T08:15:07.943Z,13.24
2023-03-10T08:17:35.539Z,13.04
2023-03-10T08:20:02.707Z,12.69
2023-03-10T08:22:29.690Z,12.53
2023-03-10T08:24:56.656Z,12.16
2023-03-10T08:27:23.841Z,11.70
2023-03-10T08:29:51.073Z,11.57
2023-03-10T08:32:18.939Z,11.24
2023-03-10T08:34:46.332Z,10.83
2023-03-10T08:37:13.339Z,10.33
2023-03-10T08:39:40.550Z,10.20
2023-03-10T08:42:10.266Z,10.19
2023-03-10T08:44:37.451Z,9.88
2023-03-10T08:47:04.833Z,9.72
2023-03-10T08:49:31.910Z,9.91
2023-03-10T08:52:00.329Z,9.98
2023-03-10T08:54:27.548Z,9.93
2023-03-10T08:56:54.538Z,9.97
2023-03-10T08:59:21.729Z,9.94
2023-03-10T09:01:48.876Z,10.25
2023-03-10T09:04:15.969Z,10.51
2023-03-10T09:06:43.058Z,10.67
2023-03-10T09:09:11.318Z,10.69
2023-03-10T09:11:40.773Z,10.57
2023-03-10T09:14:09.909Z,10.85
2023-03-10T09:16:38.088Z,11.14
2023-03-10T09:19:06.034Z,11.15
2023-03-10T09:21:33.853Z,11.08
2023-03-10T09:24:02.364Z,11.22
2023-03-10T09:26:29.785Z,11.26
2023-03-10T09:28:57.501Z,11.27
2023-03-10T09:31:34.195Z,11.26
2023-03-10T09:34:01.799Z,11.52
2023-03-10T09:36:29.950Z,11.68
2023-03-10T09:38:58.561Z,11.78
2023-03-10T09:41:52.576Z,11.94
2023-03-10T09:44:25.918Z,11.94
2023-03-10T09:47:11.215Z,11.99
2023-03-10T09:49:39.968Z,11.72
2023-03-10T09:52:49.132Z,11.85
2023-03-10T09:55:32.024Z,11.88
2023-03-10T09:57:59.511Z,12.00
2023-03-10T10:00:46.076Z,12.09
2023-03-10T10:03:20.583Z,12.18
2023-03-10T10:05:53.812Z,12.05
2023-03-10T10:08:42.318Z,12.00
2023-03-10T10:11:17.004Z,12.22
2023-03-10T10:13:46.052Z,12.40
2023-03-10T10:16:34.554Z,12.38
2023-03-10T10:19:12.925Z,12.22
2023-03-10T10:21:54.116Z,12.21
2023-03-10T10:24:22.469Z,11.80
2023-03-10T10:26:49.412Z,11.78
2023-03-10T10:29:22.690Z,12.15
2023-03-10T10:32:22.113Z,12.53
2023-03-10T10:34:50.060Z,12.55
2023-03-10T10:37:22.986Z,12.48
2023-03-10T10:39:52.711Z,12.75
2023-03-10T10:42:19.580Z,12.99
2023-03-10T10:44:47.247Z,13.12
2023-03-10T10:47:26.757Z,13.21
2023-03-10T10:49:54.970Z,13.33
2023-03-10T10:52:24.256Z,13.36
2023-03-10T10:54:59.095Z,13.39
2023-03-10T10:57:36.484Z,13.74
2023-03-10T11:00:25.377Z,14.01
2023-03-10T11:02:53.269Z,14.02
2023-03-10T11:05:25.223Z,13.88
2023-03-10T11:07:52.537Z,13.77
2023-03-10T11:10:28.249Z,13.88
2023-03-10T11:13:15.669Z,14.16
2023-03-10T11:15:51.751Z,14.12
2023-03-10T11:18:27.929Z,14.14
2023-03-10T11:21:12.013Z,14.54
2023-03-10T11:23:54.145Z,14.92
2023-03-10T11:26:24.070Z,15.56
2023-03-10T11:29:26.510Z,15.30
2023-03-10T11:32:15.476Z,14.61
2023-03-10T11:34:55.724Z,14.67
2023-03-10T11:37:30.251Z,14.90
2023-03-10T11:40:15.231Z,14.81
2023-03-10T11:43:06.259Z,14.47
2023-03-10T11:46:02.568Z,14.42
2023-03-10T11:48:48.996Z,14.20
2023-03-10T11:51:28.299Z,14.52
2023-03-10T11:53:58.986Z,14.68
2023-03-10T11:56:28.099Z,14.86
2023-03-10T11:59:14.215Z,14.85
2023-03-10T12:01:50.176Z,15.06
2023-03-10T12:04:43.001Z,15.48
2023-03-10T12:07:16.421Z,15.12
2023-03-10T12:09:49.315Z,14.76
2023-03-10T12:12:26.868Z,14.69
2023-03-10T12:15:00.270Z,14.96
2023-03-10T12:17:28.739Z,15.10
2023-03-10T12:20:12.346Z,15.17
2023-03-10T12:22:50.403Z,15.48
2023-03-10T12:25:29.320Z,16.26
2023-03-10T12:28:18.025Z,17.19
2023-03-10T12:30:49.462Z,17.69
2023-03-10T12:33:46.095Z,18.20
2023-03-10T12:36:19.212Z,18.78
2023-03-10T12:39:22.202Z,19.23
2023-03-10T12:41:51.142Z,19.30
2023-03-10T12:44:23.885Z,19.47
2023-03-10T12:46:59.457Z,19.19
2023-03-10T12:49:41.583Z,19.04
2023-03-10T12:52:23.539Z,19.07
2023-03-10T12:55:03.114Z,19.56
2023-03-10T12:57:48.170Z,19.24
2023-03-10T13:00:24.146Z,19.17
2023-03-10T13:02:56.463Z,18.70
2023-03-10T13:05:33.199Z,18.19
2023-03-10T13:08:03.038Z,17.93
2023-03-10T13:10:32.544Z,17.33
2023-03-10T13:13:07.065Z,17.44
2023-03-10T13:15:35.515Z,17.02
2023-03-10T13:18:21.046Z,16.66
2023-03-10T13:20:49.318Z,16.42
2023-03-10T13:23:43.485Z,16.06
2023-03-10T13:26:16.088Z,16.11
2023-03-10T13:28:57.861Z,16.29
2023-03-10T13:31:26.656Z,16.31
2023-03-10T13:33:55.302Z,16.20
2023-03-10T13:36:28.421Z,15.94
2023-03-10T13:38:56.625Z,15.33
2023-03-10T13:41:24.768Z,15.38
2023-03-10T13:43:54.392Z,14.97
2023-03-10T13:46:31.162Z,15.07
2023-03-10T13:49:06.504Z,14.98
2023-03-10T13:51:37.850Z,14.96
2023-03-10T13:54:20.721Z,14.54
2023-03-10T13:56:50.573Z,14.56
2023-03-10T13:59:27.402Z,14.21
2023-03-10T14:01:58.569Z,14.31
2023-03-10T14:04:45.562Z,13.85
2023-03-10T14:07:37.527Z,13.30
2023-03-10T14:10:08.212Z,13.39
2023-03-10T14:12:43.582Z,13.43
2023-03-10T14:15:19.982Z,13.46
2023-03-10T14:17:54.573Z,13.29
2023-03-10T14:20:42.733Z,13.03
2023-03-10T14:23:18.357Z,13.08
2023-03-10T14:25:47.386Z,13.02
2023-03-10T14:28:19.812Z,13.02
2023-03-10T14:30:46.940Z,12.99
2023-03-10T14:33:16.386Z,12.88
2023-03-10T14:35:46.187Z,12.86
2023-03-10T14:38:13.601Z,13.26
2023-03-10T14:40:47.419Z,14.09
2023-03-10T14:43:19.026Z,14.55
2023-03-10T14:45:51.252Z,15.39
2023-03-10T14:48:25.163Z,15.76
2023-03-10T14:50:54.676Z,16.09
2023-03-10T14:53:25.441Z,15.94
2023-03-10T14:55:56.241Z,15.18
2023-03-10T14:58:30.756Z,15.43
2023-03-10T15:00:58.258Z,16.56
2023-03-10T15:03:25.343Z,16.69
2023-03-10T15:05:52.378Z,16.40
2023-03-10T15:08:19.885Z,17.14
2023-03-10T15:10:50.845Z,17.35
2023-03-10T15:13:22.030Z,17.41
2023-03-10T15:15:50.108Z,17.21
2023-03-10T15:18:20.841Z,16.80
2023-03-10T15:20:48.220Z,15.98
2023-03-10T15:23:22.608Z,15.55
2023-03-10T15:25:49.717Z,15.60
2023-03-10T15:28:17.903Z,15.56
2023-03-10T15:30:48.149Z,15.28
2023-03-10T15:33:15.434Z,14.78
2023-03-10T15:35:43.108Z,14.30
2023-03-10T15:38:14.531Z,14.00
2023-03-10T15:40:41.824Z,13.84
2023-03-10T15:43:09.001Z,13.60
2023-03-10T15:45:42.993Z,13.47
2023-03-10T15:48:11.233Z,13.12
2023-03-10T15:50:43.126Z,12.92
2023-03-10T15:53:10.454Z,12.81
2023-03-10T15:55:41.719Z,12.81
2023-03-10T15:58:10.725Z,12.93
2023-03-10T16:00:37.931Z,12.79
2023-03-10T16:03:05.203Z,12.85
2023-03-10T16:05:32.639Z,12.79
2023-03-10T16:07:59.751Z,12.88
2023-03-10T16:10:27.185Z,12.93
2023-03-10T16:12:54.228Z,13.07
2023-03-10T16:15:22.437Z,13.12
2023-03-10T16:17:50.470Z,13.18
2023-03-10T16:20:19.769Z,12.95
2023-03-10T16:22:47.607Z,12.82
2023-03-10T16:25:18.276Z,12.80
2023-03-10T16:27:48.242Z,12.74
2023-03-10T16:30:18.308Z,12.71
2023-03-10T16:32:48.572Z,12.58
2023-03-10T16:35:18.016Z,12.44
2023-03-10T16:37:45.433Z,12.38
2023-03-10T16:40:13.018Z,12.45
2023-03-10T16:42:43.419Z,12.35
2023-03-10T16:45:10.899Z,12.18
2023-03-10T16:47:38.135Z,11.93
2023-03-10T16:50:05.752Z,11.87
2023-03-10T16:52:39.564Z,11.65
2023-03-10T16:55:09.019Z,11.55
2023-03-10T16:57:36.510Z,11.51
2023-03-10T17:00:06.109Z,11.37
2023-03-10T17:02:33.464Z,11.37
2023-03-10T17:05:00.555Z,11.29
2023-03-10T17:07:27.835Z,11.25
2023-03-10T17:09:54.896Z,11.17
2023-03-10T17:12:22.166Z,11.17
2023-03-10T17:14:51.059Z,11.12
2023-03-10T17:17:18.499Z,11.10
2023-03-10T17:19:46.074Z,11.18
2023-03-10T17:22:16.363Z,11.23
2023-03-10T17:24:43.773Z,11.19
2023-03-10T17:27:11.239Z,11.22
2023-03-10T17:29:38.779Z,11.28
2023-03-10T17:32:09.409Z,11.27
2023-03-10T17:34:36.778Z,11.27
2023-03-10T17:37:06.169Z,11.29
2023-03-10T17:39:34.439Z,11.27
2023-03-10T17:42:03.547Z,11.24
2023-03-10T17:44:30.872Z,11.32
2023-03-10T17:46:58.186Z,11.25
2023-03-10T17:49:25.359Z,11.24
2023-03-10T17:51:52.454Z,11.16
2023-03-10T17:54:21.177Z,11.10
2023-03-10T17:56:49.384Z,11.10
2023-03-10T17:59:16.933Z,11.22
2023-03-10T18:01:45.765Z,11.22
2023-03-10T18:04:13.434Z,11.28
2023-03-10T18:06:40.878Z,11.22
2023-03-10T18:09:11.704Z,11.26
2023-03-10T18:11:39.140Z,11.09
2023-03-10T18:14:06.592Z,11.10
2023-03-10T18:16:38.007Z,11.19
2023-03-10T18:19:05.506Z,11.25
2023-03-10T18:21:32.704Z,11.32
2023-03-10T18:23:59.883Z,11.42
2023-03-10T18:26:32.310Z,-145.31
2023-03-10T18:29:00.111Z,-145.31
2023-03-10T18:31:30.010Z,-145.31
2023-03-10T18:33:57.133Z,-145.31
2023-03-10T18:36:24.947Z,-145.31
2023-03-10T18:38:54.707Z,-145.31
2023-03-10T18:41:26.973Z,-145.31
2023-03-10T18:43:54.148Z,-145.31
2023-03-10T18:46:21.519Z,-145.31
2023-03-10T18:48:48.911Z,-145.31
2023-03-10T18:51:16.066Z,-145.31
2023-03-10T18:53:43.319Z,-145.31
2023-03-10T18:56:10.702Z,-145.31
2023-03-10T18:58:37.823Z,-145.31
2023-03-10T19:01:11.276Z,-145.31
2023-03-10T19:03:38.633Z,-145.31
2023-03-10T19:06:06.210Z,-145.31
2023-03-10T19:08:35.706Z,-145.31
2023-03-10T19:11:02.896Z,-145.31
2023-03-10T19:13:30.390Z,-145.31
2023-03-10T19:15:57.693Z,-145.31
2023-03-10T19:18:25.564Z,-145.31
2023-03-10T19:20:59.239Z,-145.31
2023-03-10T19:23:26.876Z,-145.31
2023-03-10T19:25:54.915Z,-145.31
2023-03-10T19:28:22.737Z,-145.31
2023-03-10T19:30:50.372Z,-145.31
2023-03-10T19:33:17.703Z,-145.31
2023-03-10T19:35:45.323Z,-145.31
2023-03-10T19:38:13.512Z,-145.31
2023-03-10T19:40:43.266Z,-145.31
2023-03-10T19:43:11.206Z,-145.31
2023-03-10T19:45:38.557Z,-145.31
2023-03-10T19:48:06.622Z,-145.31
2023-03-10T19:50:33.717Z,-145.31
2023-03-10T19:53:01.447Z,-145.31
2023-03-10T19:55:30.204Z,-145.31
2023-03-10T19:57:58.222Z,-145.31
2023-03-10T20:00:31.467Z,-145.31
2023-03-10T20:02:59.137Z,-145.31
2023-03-10T20:05:27.171Z,-145.31
2023-03-10T20:07:55.232Z,-145.31
2023-03-10T20:10:22.293Z,-145.31
2023-03-10T20:12:51.449Z,-145.31
2023-03-10T20:15:19.656Z,-145.31
2023-03-10T20:17:47.726Z,-145.31
2023-03-10T20:20:15.456Z,-145.31
2023-03-10T20:22:45.899Z,-145.31
2023-03-10T20:25:19.238Z,-145.31
2023-03-10T20:27:48.706Z,-145.31
2023-03-10T20:30:31.106Z,-145.31
2023-03-10T20:33:00.506Z,-145.31
2023-03-10T20:35:30.796Z,-145.31
2023-03-10T20:37:58.633Z,-145.31
2023-03-10T20:40:26.995Z,-145.31
2023-03-10T20:42:56.771Z,-145.31
2023-03-10T20:45:23.901Z,-145.31
2023-03-10T20:47:53.595Z,-145.31
2023-03-10T20:50:21.285Z,-145.31
2023-03-10T20:52:48.708Z,-145.31
2023-03-10T20:55:21.970Z,-145.31
2023-03-10T20:57:50.755Z,-145.31
2023-03-10T21:00:20.094Z,-145.31
2023-03-10T21:02:49.576Z,-145.31
2023-03-10T21:05:16.781Z,-145.31
2023-03-10T21:07:43.820Z,-145.31
2023-03-10T21:10:13.477Z,-145.31
2023-03-10T21:12:41.113Z,-145.31
2023-03-10T21:15:10.220Z,-145.31
2023-03-10T21:17:37.349Z,-145.31
2023-03-10T21:20:08.603Z,-145.31
2023-03-10T21:22:36.428Z,-145.31
2023-03-10T21:25:07.060Z,-145.31
2023-03-10T21:27:35.748Z,-145.31
2023-03-10T21:30:08.222Z,-145.31
2023-03-10T21:32:35.518Z,-145.31
2023-03-10T21:35:04.812Z,-145.31
2023-03-10T21:37:32.124Z,-145.31
2023-03-10T21:39:59.332Z,-145.31
2023-03-10T21:42:26.766Z,-145.31
2023-03-10T21:44:55.574Z,-145.31
2023-03-10T21:47:22.725Z,-145.31
2023-03-10T21:49:49.938Z,-145.31
2023-03-10T21:52:17.090Z,-145.31
2023-03-10T21:54:44.319Z,-145.31
2023-03-10T21:57:12.048Z,-145.31
2023-03-10T21:59:39.482Z,-145.31
2023-03-10T22:02:08.410Z,-145.31
2023-03-10T22:04:35.488Z,-145.31
2023-03-10T22:07:02.981Z,-145.31
2023-03-10T22:09:31.456Z,-145.31
2023-03-10T22:11:58.794Z,-145.31
2023-03-10T22:14:26.797Z,-145.31
2023-03-10T22:16:53.896Z,-145.31
2023-03-10T22:19:21.081Z,-145.31
2023-03-10T22:21:48.078Z,-145.31
2023-03-10T22:24:15.180Z,-145.31
2023-03-10T22:26:42.281Z,-145.31
2023-03-10T22:29:09.567Z,-145.31
2023-03-10T22:31:36.810Z,-145.31
2023-03-10T22:34:04.046Z,-145.31
2023-03-10T22:36:31.448Z,-145.31
2023-03-10T22:38:58.845Z,-145.31
2023-03-10T22:41:28.211Z,-145.31
2023-03-10T22:43:58.347Z,-145.31
2023-03-10T22:46:25.761Z,-145.31
2023-03-10T22:48:53.297Z,-145.31
2023-03-10T22:51:20.387Z,-145.31
2023-03-10T22:53:47.517Z,-145.31
2023-03-10T22:56:14.637Z,-145.31
2023-03-10T22:58:42.099Z,-145.31
2023-03-10T23:01:09.294Z,-145.31
2023-03-10T23:03:39.091Z,-145.31
2023-03-10T23:06:06.713Z,-145.31
2023-03-10T23:08:36.384Z,-145.31
2023-03-10T23:11:08.410Z,-145.31
2023-03-10T23:13:35.506Z,-145.31
2023-03-10T23:16:04.823Z,-145.31
2023-03-10T23:18:32.061Z,-145.31
2023-03-10T23:20:59.404Z,-145.31
2023-03-10T23:23:26.591Z,-145.31
2023-03-10T23:25:53.775Z,-145.31
2023-03-10T23:28:21.320Z,-145.31
2023-03-10T23:30:50.256Z,-145.31
2023-03-10T23:33:20.825Z,-145.31
2023-03-10T23:35:54.538Z,-145.31
2023-03-10T23:38:23.532Z,-145.31
2023-03-10T23:40:51.330Z,-145.31
2023-03-10T23:43:18.909Z,-145.31
2023-03-10T23:45:46.113Z,-145.31
2023-03-10T23:48:18.875Z,-145.31
2023-03-10T23:50:48.346Z,-145.31
2023-03-10T23:53:17.655Z,-145.31
2023-03-10T23:55:46.460Z,-145.31
2023-03-10T23:58:16.123Z,-145.31
